Accueil
METAR-TAF:

METAR-TAF

Aéroports :

Aéroport de Trévise

Trévise, Italie

latitude: 45-39N, longitude: 012-11E, altitude: 18 m

Observation

Le bulletin a été fait il y a 40 minutes, à 00:50 UTC
Vent 2 kt de direction variable
Température 9°C
Humidité 87%
Pression 1014 hPa
Visibilité 10 km ou plus

METAR: LIPH 240050Z AUTO VRB02KT 9999 NCD 09/07 Q1014

Heure: 03:30 (01:30 UTC)

Prévision

Le bulletin a été fait il y a 2 heures et 30 minutes, à 23:00 UTC
Prévision valable du 24 à 00 UTC au 24 à 24 UTC
Vent 5 kt de direction variable
Visibilité 10 km ou plus
pas de nuages en-dessous de 1500 mètres et pas de cumulonimbus.
Temporairement
du 24 à 00 UTC au 24 à 05 UTC
Visibilité: 4000 m
brume

TAF: LIPH 232300Z 2400/2424 VRB05KT CAVOK TEMPO 2400/2405 4000 BR

Observations et prévisions météorologiques de plus de 4000 aéroports (messages METAR et TAF).

Les stations disponibles sont représentées par des disques jaunes et rouges sur la carte.

Passer la souris dessus pour voir le nom de la station.

Cliquer dessus pour voir les observations et prévisions météorologiques.

Pour changer de carte: cliquez sur les boutons verts avec une croix noire pour zoomer, sur le bouton vert avec un tiret pour effectuer un zoom arrière, ou sur les flèches vertes pour les cartes adjacentes.


METAR-TAF: